Time;durP1;ratioP1;P1;durP2;ratioP2;P2;SDS_P1;SDS_P2;PMS_P1;PMS_P2;Temp;Humidity;BMP_temperature;BMP_pressure;BME280_temperature;BME280_humidity;BME280_pressure;Samples;Min_cycle;Max_cycle;Signal;HPM_P1;HPM_P2
2022/04/11 00:00:38;;;;;;;8.00;5.90;;;;;;;;;;5034896;28;20497;-70
2022/04/11 00:03:04;;;;;;;10.10;6.10;;;;;;;;;;5034824;28;20781;-76
2022/04/11 00:05:30;;;;;;;8.37;6.50;;;;;;;;;;5033258;28;20583;-77
2022/04/11 00:07:56;;;;;;;9.13;5.50;;;;;;;;;;5034657;28;20411;-77
2022/04/11 00:10:22;;;;;;;9.73;6.60;;;;;;;;;;5034754;28;20420;-73
2022/04/11 00:12:48;;;;;;;7.20;6.03;;;;;;;;;;5034485;28;20962;-77
2022/04/11 00:15:14;;;;;;;7.40;5.53;;;;;;;;;;5034623;28;20405;-77
2022/04/11 00:17:40;;;;;;;6.50;5.60;;;;;;;;;;5034534;28;20500;-77
2022/04/11 00:20:06;;;;;;;6.47;5.77;;;;;;;;;;5034595;28;20404;-75
2022/04/11 00:22:35;;;;;;;8.50;6.00;;;;;;;;;;5034470;28;20476;-77
2022/04/11 00:25:01;;;;;;;8.10;6.00;;;;;;;;;;5034500;28;20438;-77
2022/04/11 00:27:27;;;;;;;6.27;5.67;;;;;;;;;;5034298;28;20761;-75
2022/04/11 00:29:53;;;;;;;6.43;5.67;;;;;;;;;;5033388;28;20408;-77
2022/04/11 00:32:19;;;;;;;7.27;5.97;;;;;;;;;;5034268;28;20800;-77
2022/04/11 00:34:45;;;;;;;8.43;5.80;;;;;;;;;;5034036;28;20457;-77
2022/04/11 00:37:11;;;;;;;10.53;6.70;;;;;;;;;;5034256;28;20408;-78
2022/04/11 00:39:37;;;;;;;8.67;6.60;;;;;;;;;;5033041;28;20412;-77
2022/04/11 00:42:07;;;;;;;8.10;6.43;;;;;;;;;;5033640;28;20921;-77
2022/04/11 00:44:33;;;;;;;7.37;6.40;;;;;;;;;;5034068;28;20412;-74
2022/04/11 00:46:59;;;;;;;11.33;6.93;;;;;;;;;;5034069;28;20916;-77
2022/04/11 00:49:25;;;;;;;10.10;7.93;;;;;;;;;;5034029;28;20399;-76
2022/04/11 00:51:51;;;;;;;9.50;7.30;;;;;;;;;;5033830;28;20979;-77
2022/04/11 00:54:17;;;;;;;10.40;7.63;;;;;;;;;;5033702;28;20890;-78
2022/04/11 00:56:44;;;;;;;10.93;7.70;;;;;;;;;;5033981;28;20418;-78
2022/04/11 00:59:12;;;;;;;8.50;7.60;;;;;;;;;;5033952;28;20399;-76
2022/04/11 01:01:39;;;;;;;10.47;7.50;;;;;;;;;;5033798;28;20413;-77
2022/04/11 01:04:05;;;;;;;9.60;7.13;;;;;;;;;;5033571;28;20450;-74
2022/04/11 01:06:31;;;;;;;7.93;6.33;;;;;;;;;;5033592;28;20471;-77
2022/04/11 01:08:58;;;;;;;9.27;7.20;;;;;;;;;;5033553;28;20423;-78
2022/04/11 01:11:24;;;;;;;9.17;7.30;;;;;;;;;;5033539;28;20547;-72
2022/04/11 01:13:50;;;;;;;8.07;6.80;;;;;;;;;;5032124;28;20416;-76
2022/04/11 01:16:26;;;;;;;9.47;6.97;;;;;;;;;;5033558;28;20890;-77
2022/04/11 01:18:52;;;;;;;8.10;7.20;;;;;;;;;;5032270;28;20796;-77
2022/04/11 01:21:18;;;;;;;8.80;6.87;;;;;;;;;;5033421;28;20552;-75
2022/04/11 01:23:44;;;;;;;10.57;6.77;;;;;;;;;;5031977;28;20449;-77
2022/04/11 01:26:11;;;;;;;10.27;6.97;;;;;;;;;;5033505;28;20404;-77
2022/04/11 01:28:40;;;;;;;10.13;7.00;;;;;;;;;;5033415;28;20404;-68
2022/04/11 01:31:06;;;;;;;9.57;6.83;;;;;;;;;;5033252;28;20409;-77
2022/04/11 01:33:32;;;;;;;10.00;7.30;;;;;;;;;;5031914;28;20424;-76
2022/04/11 01:35:58;;;;;;;10.10;7.53;;;;;;;;;;5033134;28;20430;-69
2022/04/11 01:38:24;;;;;;;13.10;7.57;;;;;;;;;;5033393;28;20418;-78
2022/04/11 01:40:54;;;;;;;12.40;7.53;;;;;;;;;;5033099;28;20406;-78
2022/04/11 01:43:21;;;;;;;10.57;7.83;;;;;;;;;;5033010;28;20406;-76
2022/04/11 01:45:47;;;;;;;10.07;7.43;;;;;;;;;;5033109;28;20408;-75
2022/04/11 01:48:13;;;;;;;11.27;7.37;;;;;;;;;;5033060;28;20890;-68
2022/04/11 01:50:39;;;;;;;10.30;7.90;;;;;;;;;;5033100;28;20406;-76
2022/04/11 01:53:10;;;;;;;12.70;7.53;;;;;;;;;;5033224;28;20497;-69
2022/04/11 01:55:36;;;;;;;9.10;6.70;;;;;;;;;;5037436;28;20454;-69
2022/04/11 01:58:03;;;;;;;11.93;8.00;;;;;;;;;;5035915;28;20410;-77
2022/04/11 02:00:29;;;;;;;9.90;7.43;;;;;;;;;;5037119;28;20514;-74
2022/04/11 02:02:55;;;;;;;10.60;7.80;;;;;;;;;;5037108;28;20487;-78
2022/04/11 02:05:21;;;;;;;10.30;8.10;;;;;;;;;;5036836;28;20495;-77
2022/04/11 02:07:47;;;;;;;9.50;8.00;;;;;;;;;;5037155;28;20499;-78
2022/04/11 02:10:13;;;;;;;9.83;7.30;;;;;;;;;;5036879;28;20399;-72
2022/04/11 02:12:39;;;;;;;9.33;7.10;;;;;;;;;;5036659;28;20463;-77
2022/04/11 02:15:06;;;;;;;11.70;8.00;;;;;;;;;;5036877;28;20408;-67
2022/04/11 02:17:32;;;;;;;9.83;7.17;;;;;;;;;;5036757;28;20422;-77
2022/04/11 02:19:58;;;;;;;10.20;8.20;;;;;;;;;;5036807;28;20403;-74
2022/04/11 02:22:24;;;;;;;11.53;7.60;;;;;;;;;;5036674;28;20768;-77
2022/04/11 02:24:50;;;;;;;11.23;8.10;;;;;;;;;;5036721;28;20422;-77
2022/04/11 02:27:16;;;;;;;11.90;7.97;;;;;;;;;;5036624;28;20565;-72
2022/04/11 02:29:42;;;;;;;12.10;7.80;;;;;;;;;;5036619;28;20442;-77
2022/04/11 02:32:09;;;;;;;10.13;7.77;;;;;;;;;;5036516;28;20462;-77
2022/04/11 02:34:35;;;;;;;9.60;7.80;;;;;;;;;;5036594;28;20478;-68
2022/04/11 02:37:01;;;;;;;12.90;7.80;;;;;;;;;;5036347;28;20854;-76
2022/04/11 02:39:27;;;;;;;11.43;7.20;;;;;;;;;;5036499;28;20418;-73
2022/04/11 02:41:53;;;;;;;14.13;8.63;;;;;;;;;;5035194;28;20415;-69
2022/04/11 02:44:19;;;;;;;10.20;7.50;;;;;;;;;;5036289;28;20742;-77
2022/04/11 02:46:44;;;;;;;10.50;7.47;;;;;;;;;;5036310;28;20394;-74
2022/04/11 02:49:11;;;;;;;10.63;7.20;;;;;;;;;;5034945;28;20415;-76
2022/04/11 02:51:37;;;;;;;9.17;7.20;;;;;;;;;;5036123;28;20488;-73
2022/04/11 02:54:07;;;;;;;8.80;7.13;;;;;;;;;;5035852;28;20918;-74
2022/04/11 02:56:33;;;;;;;14.43;8.50;;;;;;;;;;5036201;28;20392;-77
2022/04/11 02:58:59;;;;;;;8.57;7.60;;;;;;;;;;5034672;28;20422;-76
2022/04/11 03:01:25;;;;;;;12.47;8.23;;;;;;;;;;5035985;28;20941;-76
2022/04/11 03:03:51;;;;;;;9.27;7.40;;;;;;;;;;5035496;28;20464;-72
2022/04/11 03:06:17;;;;;;;10.97;8.03;;;;;;;;;;5035903;28;20449;-73
2022/04/11 03:08:43;;;;;;;10.13;7.67;;;;;;;;;;5035975;28;20450;-75
2022/04/11 03:11:09;;;;;;;9.80;7.00;;;;;;;;;;5035312;28;20424;-75
2022/04/11 03:13:35;;;;;;;11.40;7.77;;;;;;;;;;5035685;28;20431;-67
2022/04/11 03:16:01;;;;;;;9.43;7.37;;;;;;;;;;5035696;28;20411;-72
2022/04/11 03:18:27;;;;;;;12.63;7.57;;;;;;;;;;5035740;28;20415;-69
2022/04/11 03:20:53;;;;;;;10.00;7.87;;;;;;;;;;5035727;28;20425;-77
2022/04/11 03:23:19;;;;;;;12.27;7.90;;;;;;;;;;5035486;28;20446;-73
2022/04/11 03:25:45;;;;;;;9.23;7.30;;;;;;;;;;5035555;28;20426;-72
2022/04/11 03:28:11;;;;;;;14.10;7.77;;;;;;;;;;5035656;28;20745;-77
2022/04/11 03:30:37;;;;;;;9.30;7.67;;;;;;;;;;5035517;28;20474;-76
2022/04/11 03:33:03;;;;;;;13.00;7.57;;;;;;;;;;5035321;28;20517;-77
2022/04/11 03:35:29;;;;;;;9.87;7.70;;;;;;;;;;5035471;28;20404;-76
2022/04/11 03:37:55;;;;;;;9.37;7.20;;;;;;;;;;5035356;28;20407;-77
2022/04/11 03:40:21;;;;;;;11.03;7.90;;;;;;;;;;5035349;28;20425;-77
2022/04/11 03:42:47;;;;;;;13.30;7.90;;;;;;;;;;5035155;28;20792;-67
2022/04/11 03:45:13;;;;;;;10.80;7.83;;;;;;;;;;5035344;28;20403;-75
2022/04/11 03:47:39;;;;;;;10.63;7.70;;;;;;;;;;5035210;28;20434;-75
2022/04/11 03:50:05;;;;;;;9.97;7.50;;;;;;;;;;5035045;28;20388;-74
2022/04/11 03:52:31;;;;;;;9.00;7.03;;;;;;;;;;5034878;28;21038;-76
2022/04/11 03:54:57;;;;;;;12.03;8.10;;;;;;;;;;5034917;28;20424;-75
2022/04/11 03:57:23;;;;;;;9.47;7.60;;;;;;;;;;5033601;28;20445;-76
2022/04/11 03:59:49;;;;;;;9.13;7.60;;;;;;;;;;5034947;28;20404;-76
2022/04/11 04:02:15;;;;;;;12.67;8.20;;;;;;;;;;5034835;28;20417;-77
2022/04/11 04:04:41;;;;;;;10.50;8.20;;;;;;;;;;5034582;28;20465;-74
2022/04/11 04:07:07;;;;;;;9.83;7.80;;;;;;;;;;5034771;28;20415;-78
2022/04/11 04:09:33;;;;;;;9.37;7.63;;;;;;;;;;5034706;28;20761;-73
2022/04/11 04:11:59;;;;;;;11.37;7.27;;;;;;;;;;5034597;28;20466;-75
2022/04/11 04:14:25;;;;;;;10.63;8.03;;;;;;;;;;5034475;28;20412;-77
2022/04/11 04:16:51;;;;;;;10.47;8.30;;;;;;;;;;5033760;28;20507;-75
2022/04/11 04:19:17;;;;;;;10.77;8.07;;;;;;;;;;5034561;28;20399;-71
2022/04/11 04:21:43;;;;;;;10.90;8.03;;;;;;;;;;5034455;28;20404;-75
2022/04/11 04:24:09;;;;;;;10.03;8.00;;;;;;;;;;5034326;28;20426;-75
2022/04/11 04:26:35;;;;;;;10.80;8.30;;;;;;;;;;5034456;28;20394;-70
2022/04/11 04:29:01;;;;;;;13.17;8.17;;;;;;;;;;5034305;28;20920;-75
2022/04/11 04:31:27;;;;;;;13.53;7.90;;;;;;;;;;5034122;28;20450;-72
2022/04/11 04:33:54;;;;;;;10.60;8.00;;;;;;;;;;5034193;28;20453;-72
2022/04/11 04:36:20;;;;;;;10.53;8.37;;;;;;;;;;5034180;28;20418;-74
2022/04/11 04:38:47;;;;;;;12.83;8.77;;;;;;;;;;5034216;28;20484;-74
2022/04/11 04:41:12;;;;;;;14.00;8.80;;;;;;;;;;5034223;28;20412;-73
2022/04/11 04:43:38;;;;;;;10.00;7.90;;;;;;;;;;5032762;28;20422;-73
2022/04/11 04:46:04;;;;;;;10.10;7.90;;;;;;;;;;5033984;28;20862;-73
2022/04/11 04:48:30;;;;;;;9.20;8.10;;;;;;;;;;5034229;28;20506;-73
2022/04/11 04:50:56;;;;;;;12.63;9.30;;;;;;;;;;5034118;28;20502;-71
2022/04/11 04:53:23;;;;;;;13.13;8.17;;;;;;;;;;5032636;28;20483;-71
2022/04/11 04:55:48;;;;;;;11.00;7.50;;;;;;;;;;5033863;28;20401;-76
2022/04/11 04:58:14;;;;;;;12.10;8.53;;;;;;;;;;5032448;28;20515;-74
2022/04/11 05:00:40;;;;;;;10.13;8.00;;;;;;;;;;5032607;28;20413;-76
2022/04/11 05:03:06;;;;;;;11.60;8.40;;;;;;;;;;5032500;28;20415;-75
2022/04/11 05:05:35;;;;;;;13.27;8.40;;;;;;;;;;5033538;28;20446;-79
2022/04/11 05:08:01;;;;;;;13.07;9.27;;;;;;;;;;5034036;28;20475;-75
2022/04/11 05:10:27;;;;;;;11.70;8.60;;;;;;;;;;5033526;28;20399;-79
2022/04/11 05:12:53;;;;;;;20.93;7.73;;;;;;;;;;5033621;28;20825;-79
2022/04/11 05:15:19;;;;;;;10.03;7.40;;;;;;;;;;5033750;28;20411;-83
2022/04/11 05:17:45;;;;;;;11.57;7.50;;;;;;;;;;5033707;28;20407;-86
2022/04/11 05:20:11;;;;;;;9.97;7.77;;;;;;;;;;5033605;28;20764;-78
2022/04/11 05:22:38;;;;;;;13.20;7.83;;;;;;;;;;5033438;28;20404;-80
2022/04/11 05:25:04;;;;;;;13.30;8.70;;;;;;;;;;5033687;28;20416;-83
2022/04/11 05:27:30;;;;;;;11.07;8.10;;;;;;;;;;5033917;28;20442;-85
2022/04/11 05:29:56;;;;;;;12.73;7.67;;;;;;;;;;5033240;28;20410;-81
2022/04/11 05:32:22;;;;;;;12.70;8.20;;;;;;;;;;5033081;28;20974;-81
2022/04/11 05:34:48;;;;;;;13.53;9.23;;;;;;;;;;5033288;28;20410;-77
2022/04/11 05:37:14;;;;;;;10.50;8.23;;;;;;;;;;5032059;28;20426;-80
2022/04/11 05:39:40;;;;;;;10.13;8.23;;;;;;;;;;5033298;28;20901;-81
2022/04/11 05:42:06;;;;;;;11.07;8.17;;;;;;;;;;5031847;28;20411;-81
2022/04/11 05:44:33;;;;;;;10.50;7.90;;;;;;;;;;5033206;28;20404;-78
2022/04/11 05:46:59;;;;;;;13.53;8.60;;;;;;;;;;5033142;28;20991;-81
2022/04/11 05:49:25;;;;;;;12.60;8.50;;;;;;;;;;5033126;28;20403;-79
2022/04/11 05:51:51;;;;;;;9.60;7.40;;;;;;;;;;5032929;28;20453;-78
2022/04/11 05:54:17;;;;;;;11.27;8.13;;;;;;;;;;5033087;28;20430;-79
2022/04/11 05:56:43;;;;;;;10.97;8.30;;;;;;;;;;5031869;28;20851;-80
2022/04/11 05:59:09;;;;;;;9.87;8.80;;;;;;;;;;5033087;28;20525;-80
2022/04/11 06:01:35;;;;;;;13.23;8.43;;;;;;;;;;5033025;28;20418;-82
2022/04/11 06:04:02;;;;;;;12.63;8.60;;;;;;;;;;5032676;28;20486;-79
2022/04/11 06:06:27;;;;;;;12.27;8.67;;;;;;;;;;5032952;28;20449;-80
2022/04/11 06:08:54;;;;;;;11.17;8.70;;;;;;;;;;5031665;28;20816;-77
2022/04/11 06:11:19;;;;;;;11.43;8.50;;;;;;;;;;5032752;28;20411;-75
2022/04/11 06:13:46;;;;;;;12.20;8.27;;;;;;;;;;5032895;28;20404;-78
2022/04/11 06:16:14;;;;;;;10.50;8.03;;;;;;;;;;5031696;28;20443;-78
2022/04/11 06:18:40;;;;;;;12.30;9.20;;;;;;;;;;5032789;28;20458;-79
2022/04/11 06:21:06;;;;;;;9.03;7.83;;;;;;;;;;5032895;28;20406;-80
2022/04/11 06:23:33;;;;;;;11.77;8.70;;;;;;;;;;5032633;28;20433;-81
2022/04/11 06:26:00;;;;;;;11.97;8.77;;;;;;;;;;5032746;28;21565;-78
2022/04/11 06:28:26;;;;;;;11.33;8.50;;;;;;;;;;5032628;28;20407;-79
2022/04/11 06:30:52;;;;;;;11.63;8.43;;;;;;;;;;5032590;28;20404;-79
2022/04/11 06:33:18;;;;;;;9.63;8.13;;;;;;;;;;5031320;28;20470;-77
2022/04/11 06:35:44;;;;;;;13.50;8.60;;;;;;;;;;5032543;28;20420;-77
2022/04/11 06:38:10;;;;;;;13.63;9.20;;;;;;;;;;5032579;28;20484;-72
2022/04/11 06:40:36;;;;;;;10.03;8.10;;;;;;;;;;5035555;28;20464;-79
2022/04/11 06:43:02;;;;;;;10.43;8.13;;;;;;;;;;5036262;28;20428;-80
2022/04/11 06:45:28;;;;;;;9.83;8.23;;;;;;;;;;5036423;28;20891;-80
2022/04/11 06:47:54;;;;;;;11.57;8.33;;;;;;;;;;5036346;28;20418;-78
2022/04/11 06:50:20;;;;;;;11.47;8.60;;;;;;;;;;5036294;28;20405;-76
2022/04/11 06:52:46;;;;;;;15.53;9.43;;;;;;;;;;5034447;28;20477;-80
2022/04/11 06:55:12;;;;;;;13.07;9.03;;;;;;;;;;5036017;28;20403;-77
2022/04/11 06:57:38;;;;;;;15.07;9.10;;;;;;;;;;5036092;28;20415;-78
2022/04/11 07:00:05;;;;;;;12.33;9.33;;;;;;;;;;5035993;28;20411;-80
2022/04/11 07:02:31;;;;;;;17.27;9.97;;;;;;;;;;5035912;28;20411;-74
2022/04/11 07:04:57;;;;;;;13.80;9.40;;;;;;;;;;5034712;28;20544;-77
2022/04/11 07:07:23;;;;;;;17.00;8.83;;;;;;;;;;5034747;28;20477;-77
2022/04/11 07:09:49;;;;;;;10.67;9.20;;;;;;;;;;5035792;28;20414;-77
2022/04/11 07:12:15;;;;;;;13.37;9.50;;;;;;;;;;5035578;28;20478;-80
2022/04/11 07:14:41;;;;;;;11.90;8.97;;;;;;;;;;5035857;28;20434;-78
2022/04/11 07:17:07;;;;;;;14.87;9.10;;;;;;;;;;5035641;28;20891;-78
2022/04/11 07:19:33;;;;;;;14.17;9.50;;;;;;;;;;5035770;28;20405;-81
2022/04/11 07:21:59;;;;;;;11.57;8.80;;;;;;;;;;5035640;28;20420;-80
2022/04/11 07:24:25;;;;;;;12.00;8.77;;;;;;;;;;5035696;28;20959;-80
2022/04/11 07:26:51;;;;;;;13.33;8.93;;;;;;;;;;5035528;28;20418;-80
2022/04/11 07:29:17;;;;;;;11.70;9.50;;;;;;;;;;5035596;28;20468;-75
2022/04/11 07:31:43;;;;;;;14.43;9.23;;;;;;;;;;5035344;28;20462;-80
2022/04/11 07:34:09;;;;;;;13.53;9.17;;;;;;;;;;5035453;28;20433;-81
2022/04/11 07:36:35;;;;;;;14.70;9.67;;;;;;;;;;5035343;28;20959;-75
2022/04/11 07:39:01;;;;;;;14.83;8.97;;;;;;;;;;5035282;28;20502;-78
2022/04/11 07:41:27;;;;;;;9.80;7.23;;;;;;;;;;5035353;28;20490;-80
2022/04/11 07:43:54;;;;;;;11.20;8.00;;;;;;;;;;5035311;28;20405;-80
2022/04/11 07:46:20;;;;;;;11.20;7.10;;;;;;;;;;5035295;28;20399;-79
2022/04/11 07:48:46;;;;;;;10.60;7.30;;;;;;;;;;5035241;28;20886;-80
2022/04/11 07:51:12;;;;;;;9.50;7.30;;;;;;;;;;5033852;28;20408;-79
2022/04/11 07:53:38;;;;;;;12.50;7.10;;;;;;;;;;5034990;28;20434;-81
2022/04/11 07:56:04;;;;;;;8.10;6.70;;;;;;;;;;5034869;28;20483;-80
2022/04/11 07:58:30;;;;;;;9.77;7.20;;;;;;;;;;5035044;28;20399;-80
2022/04/11 08:00:56;;;;;;;7.87;6.20;;;;;;;;;;5034971;28;20752;-80
2022/04/11 08:03:22;;;;;;;6.77;5.10;;;;;;;;;;5034880;28;20402;-79
2022/04/11 08:05:48;;;;;;;5.33;4.20;;;;;;;;;;5034695;28;20461;-80
2022/04/11 08:08:15;;;;;;;9.40;5.13;;;;;;;;;;5034829;28;20497;-80
2022/04/11 08:10:41;;;;;;;5.90;4.30;;;;;;;;;;5034781;28;20410;-80
2022/04/11 08:13:08;;;;;;;7.90;4.90;;;;;;;;;;5034541;28;21065;-81
2022/04/11 08:15:34;;;;;;;4.27;3.87;;;;;;;;;;5034669;28;20406;-81
2022/04/11 08:18:01;;;;;;;6.70;4.23;;;;;;;;;;5017003;28;20427;-81
2022/04/11 08:20:27;;;;;;;5.63;4.27;;;;;;;;;;5034507;28;20410;-81
2022/04/11 08:22:53;;;;;;;5.50;4.50;;;;;;;;;;5034360;28;20521;-80
2022/04/11 08:25:20;;;;;;;5.70;4.27;;;;;;;;;;5034372;28;20472;-77
2022/04/11 08:27:47;;;;;;;5.33;4.00;;;;;;;;;;5034503;28;20486;-81
2022/04/11 08:30:13;;;;;;;4.63;4.23;;;;;;;;;;5033325;28;20457;-81
2022/04/11 08:32:42;;;;;;;4.57;4.17;;;;;;;;;;5034228;28;20477;-80
2022/04/11 08:35:09;;;;;;;5.63;4.10;;;;;;;;;;5034298;28;20497;-80
2022/04/11 08:37:40;;;;;;;6.33;4.33;;;;;;;;;;5033014;28;20777;-79
2022/04/11 08:40:10;;;;;;;6.00;4.20;;;;;;;;;;5034289;28;20379;-79
2022/04/11 08:42:40;;;;;;;5.30;3.63;;;;;;;;;;5034169;28;20402;-74
2022/04/11 08:45:06;;;;;;;4.97;4.27;;;;;;;;;;5034146;28;20398;-77
2022/04/11 08:47:32;;;;;;;5.10;4.03;;;;;;;;;;5034154;28;20406;-81
2022/04/11 08:50:00;;;;;;;6.77;4.10;;;;;;;;;;5033990;28;20402;-77
2022/04/11 08:52:27;;;;;;;4.93;3.70;;;;;;;;;;5033819;28;20549;-80
2022/04/11 08:54:53;;;;;;;5.63;4.00;;;;;;;;;;5033833;28;20786;-71
2022/04/11 08:57:19;;;;;;;5.03;4.40;;;;;;;;;;5032568;28;20433;-81
2022/04/11 08:59:46;;;;;;;4.57;3.80;;;;;;;;;;5032601;28;20415;-74
2022/04/11 09:02:12;;;;;;;4.73;3.70;;;;;;;;;;5033427;28;20411;-77
2022/04/11 09:04:51;;;;;;;4.90;4.40;;;;;;;;;;5033525;28;20520;-79
2022/04/11 09:07:17;;;;;;;4.80;4.13;;;;;;;;;;5033672;28;20469;-75
2022/04/11 09:09:43;;;;;;;4.57;4.17;;;;;;;;;;5033750;28;20502;-74
2022/04/11 09:12:11;;;;;;;4.20;3.80;;;;;;;;;;5033365;28;20589;-76
2022/04/11 09:14:38;;;;;;;4.13;3.57;;;;;;;;;;5033622;28;20502;-77
2022/04/11 09:17:04;;;;;;;4.20;3.70;;;;;;;;;;5033657;28;20468;-78
2022/04/11 09:19:31;;;;;;;5.13;4.10;;;;;;;;;;5032119;28;20407;-74
2022/04/11 09:21:57;;;;;;;6.30;3.90;;;;;;;;;;5032090;28;20429;-78
2022/04/11 09:24:26;;;;;;;4.10;3.70;;;;;;;;;;5033386;28;20449;-78
2022/04/11 09:26:55;;;;;;;4.40;3.70;;;;;;;;;;5033404;28;20506;-75
2022/04/11 09:29:22;;;;;;;4.10;3.77;;;;;;;;;;5032073;28;20835;-78
2022/04/11 09:31:48;;;;;;;9.37;3.53;;;;;;;;;;5033059;28;20624;-80
2022/04/11 09:34:18;;;;;;;5.87;3.23;;;;;;;;;;5033390;28;20429;-80
2022/04/11 09:36:45;;;;;;;3.50;3.20;;;;;;;;;;5033229;28;20399;-80
2022/04/11 09:39:11;;;;;;;3.73;3.23;;;;;;;;;;5032037;28;20947;-76
2022/04/11 09:41:42;;;;;;;3.17;2.80;;;;;;;;;;5031909;28;20770;-78
2022/04/11 09:44:25;;;;;;;24.87;14.60;;;;;;;;;;5033216;28;20410;-78
2022/04/11 09:46:52;;;;;;;11.00;8.30;;;;;;;;;;5033190;28;20402;-78
2022/04/11 09:49:18;;;;;;;9.83;8.83;;;;;;;;;;5031963;28;20760;-78
2022/04/11 09:52:02;;;;;;;4.00;3.70;;;;;;;;;;5033172;28;20465;-79
2022/04/11 09:54:29;;;;;;;3.20;2.90;;;;;;;;;;5033217;28;20418;-78
2022/04/11 09:56:57;;;;;;;3.00;2.80;;;;;;;;;;5033222;28;20403;-80
2022/04/11 09:59:23;;;;;;;3.87;2.80;;;;;;;;;;5033177;28;20390;-80
2022/04/11 10:01:51;;;;;;;3.37;3.07;;;;;;;;;;5033084;28;20975;-69
2022/04/11 10:04:20;;;;;;;4.20;2.80;;;;;;;;;;5031604;28;21067;-77
2022/04/11 10:06:46;;;;;;;3.23;2.87;;;;;;;;;;5033331;28;20411;-72
2022/04/11 10:09:13;;;;;;;4.77;2.97;;;;;;;;;;5033052;28;20398;-75
2022/04/11 10:11:41;;;;;;;3.40;3.10;;;;;;;;;;5033024;28;20986;-71
2022/04/11 10:14:10;;;;;;;3.13;2.93;;;;;;;;;;5033555;28;20415;-76
2022/04/11 10:16:37;;;;;;;2.93;2.73;;;;;;;;;;5036988;28;20487;-79
2022/04/11 10:19:04;;;;;;;3.10;2.60;;;;;;;;;;5036950;28;20501;-75
2022/04/11 10:21:30;;;;;;;3.63;3.33;;;;;;;;;;5036779;28;20456;-77
2022/04/11 10:24:05;;;;;;;4.07;3.10;;;;;;;;;;5036606;28;20430;-73
2022/04/11 10:26:43;;;;;;;7.90;3.20;;;;;;;;;;5036712;28;20397;-78
2022/04/11 10:29:29;;;;;;;3.97;3.03;;;;;;;;;;5036669;28;20403;-72
2022/04/11 10:32:05;;;;;;;5.07;3.37;;;;;;;;;;5036279;28;20469;-79
2022/04/11 10:34:50;;;;;;;3.40;3.10;;;;;;;;;;5036464;28;20448;-71
2022/04/11 10:37:20;;;;;;;2.73;2.53;;;;;;;;;;5038246;28;20398;-70
2022/04/11 10:39:47;;;;;;;3.20;2.90;;;;;;;;;;5036363;28;20383;-80
2022/04/11 10:42:14;;;;;;;3.70;3.40;;;;;;;;;;5036221;28;20402;-78
2022/04/11 10:44:50;;;;;;;5.93;3.77;;;;;;;;;;5036294;28;20409;-77
2022/04/11 10:47:16;;;;;;;4.30;3.40;;;;;;;;;;5036327;28;20413;-76
2022/04/11 10:49:46;;;;;;;6.50;3.10;;;;;;;;;;5036265;28;20399;-80
2022/04/11 10:52:34;;;;;;;3.40;3.00;;;;;;;;;;5035916;28;20462;-75
2022/04/11 10:55:06;;;;;;;3.30;3.00;;;;;;;;;;5034784;28;20988;-78
2022/04/11 10:57:33;;;;;;;3.00;2.80;;;;;;;;;;5036147;28;20512;-71
2022/04/11 11:00:07;;;;;;;4.80;3.40;;;;;;;;;;5036003;28;20457;-78
2022/04/11 11:02:57;;;;;;;3.70;3.40;;;;;;;;;;5036034;28;20411;-79
2022/04/11 11:05:26;;;;;;;3.00;2.77;;;;;;;;;;5037659;28;20973;-75
2022/04/11 11:08:07;;;;;;;4.10;3.57;;;;;;;;;;5035917;28;20450;-72
2022/04/11 11:10:41;;;;;;;2.60;2.40;;;;;;;;;;5035833;28;20449;-78
2022/04/11 11:13:32;;;;;;;4.43;3.30;;;;;;;;;;5035716;28;20505;-77
2022/04/11 11:15:58;;;;;;;3.27;2.97;;;;;;;;;;5035774;28;20403;-80
2022/04/11 11:18:25;;;;;;;3.27;2.80;;;;;;;;;;5035712;28;20493;-72
2022/04/11 11:20:55;;;;;;;3.00;2.70;;;;;;;;;;5035809;28;20464;-74
2022/04/11 11:23:21;;;;;;;3.23;2.93;;;;;;;;;;5035538;28;20422;-72
2022/04/11 11:25:49;;;;;;;2.80;2.53;;;;;;;;;;5035443;28;20878;-76
2022/04/11 11:28:15;;;;;;;3.57;3.00;;;;;;;;;;5035531;28;20464;-74
2022/04/11 11:30:41;;;;;;;3.53;3.23;;;;;;;;;;5035325;28;20418;-76
2022/04/11 11:33:08;;;;;;;3.00;2.70;;;;;;;;;;5035258;28;20545;-73
2022/04/11 11:35:35;;;;;;;3.60;3.30;;;;;;;;;;5035430;28;20418;-76
2022/04/11 11:38:07;;;;;;;3.60;3.10;;;;;;;;;;5034294;28;20419;-75
2022/04/11 11:40:36;;;;;;;3.40;3.10;;;;;;;;;;5035263;28;20414;-80
2022/04/11 11:43:02;;;;;;;5.50;3.00;;;;;;;;;;5035168;28;20415;-71
2022/04/11 11:45:28;;;;;;;3.33;3.13;;;;;;;;;;5033879;28;20410;-79
2022/04/11 11:47:54;;;;;;;3.77;2.60;;;;;;;;;;5033898;28;20480;-79
2022/04/11 11:50:20;;;;;;;4.33;2.50;;;;;;;;;;5035255;28;20754;-79
2022/04/11 11:52:59;;;;;;;3.43;3.13;;;;;;;;;;5033616;28;20481;-70
2022/04/11 11:55:26;;;;;;;4.43;2.50;;;;;;;;;;5035075;28;20418;-78
2022/04/11 11:58:04;;;;;;;2.90;2.70;;;;;;;;;;5033733;28;20430;-79
2022/04/11 12:00:34;;;;;;;3.37;2.90;;;;;;;;;;5034953;28;20406;-78
2022/04/11 12:05:45;;;;;;;2.80;2.60;;;;;;;;;;5034788;28;20495;-79
2022/04/11 12:08:17;;;;;;;3.43;2.70;;;;;;;;;;5033492;28;20472;-78
2022/04/11 12:10:46;;;;;;;3.13;2.93;;;;;;;;;;5034778;28;20406;-79
2022/04/11 12:13:42;;;;;;;5.37;3.93;;;;;;;;;;5034518;28;20466;-78
2022/04/11 12:16:17;;;;;;;3.40;3.10;;;;;;;;;;5038298;28;20461;-67
2022/04/11 12:18:50;;;;;;;6.00;3.90;;;;;;;;;;5033224;28;20790;-79
2022/04/11 12:21:16;;;;;;;2.70;2.40;;;;;;;;;;5034484;28;20407;-78
2022/04/11 12:23:47;;;;;;;2.60;2.43;;;;;;;;;;5034334;28;20418;-78
2022/04/11 12:26:13;;;;;;;3.03;2.73;;;;;;;;;;5034378;28;20504;-79
2022/04/11 12:28:39;;;;;;;3.37;2.87;;;;;;;;;;5034449;28;20410;-79
2022/04/11 12:31:05;;;;;;;3.53;3.13;;;;;;;;;;5033071;28;20414;-79
2022/04/11 12:33:35;;;;;;;3.00;2.80;;;;;;;;;;5032835;28;20977;-75
2022/04/11 12:36:08;;;;;;;3.03;2.80;;;;;;;;;;5034183;28;20484;-78
2022/04/11 12:38:40;;;;;;;3.93;2.80;;;;;;;;;;5032361;28;20446;-71
2022/04/11 12:41:08;;;;;;;3.00;2.67;;;;;;;;;;5034261;28;20945;-79
2022/04/11 12:43:34;;;;;;;2.70;2.50;;;;;;;;;;5034045;28;20920;-78
2022/04/11 12:46:06;;;;;;;3.30;3.00;;;;;;;;;;5034018;28;20517;-78
2022/04/11 12:48:51;;;;;;;5.17;2.80;;;;;;;;;;5034014;28;20406;-79
2022/04/11 12:51:17;;;;;;;4.43;3.40;;;;;;;;;;5033811;28;21036;-79
2022/04/11 12:53:43;;;;;;;3.73;2.43;;;;;;;;;;5033920;28;20565;-78
2022/04/11 12:56:09;;;;;;;4.87;3.00;;;;;;;;;;5033987;28;20399;-78
2022/04/11 12:58:37;;;;;;;5.90;3.00;;;;;;;;;;5033936;28;20480;-79
2022/04/11 13:01:03;;;;;;;3.87;3.43;;;;;;;;;;5033775;28;20409;-79
2022/04/11 13:03:30;;;;;;;3.37;3.07;;;;;;;;;;5032457;28;20430;-78
2022/04/11 13:06:02;;;;;;;3.20;2.90;;;;;;;;;;5033765;28;20411;-75
2022/04/11 13:08:29;;;;;;;6.00;3.80;;;;;;;;;;5033702;28;20407;-72
2022/04/11 13:10:58;;;;;;;3.10;2.83;;;;;;;;;;5033616;28;20739;-79
2022/04/11 13:13:25;;;;;;;3.40;3.10;;;;;;;;;;5033493;28;20473;-80
2022/04/11 13:18:36;;;;;;;3.90;3.60;;;;;;;;;;5033617;28;20437;-77
2022/04/11 13:21:02;;;;;;;6.97;3.77;;;;;;;;;;5033360;28;20422;-79
2022/04/11 13:23:28;;;;;;;4.10;3.43;;;;;;;;;;5033303;28;20465;-77
2022/04/11 13:25:54;;;;;;;4.23;3.03;;;;;;;;;;5033509;28;20920;-79
2022/04/11 13:28:22;;;;;;;5.57;3.13;;;;;;;;;;5033379;28;20398;-78
2022/04/11 13:30:48;;;;;;;3.90;3.60;;;;;;;;;;5033219;28;20387;-78
2022/04/11 13:33:18;;;;;;;4.47;3.80;;;;;;;;;;5033210;28;20484;-80
2022/04/11 13:35:45;;;;;;;3.30;3.00;;;;;;;;;;5033178;28;20432;-82
2022/04/11 13:38:11;;;;;;;4.20;3.40;;;;;;;;;;5033342;28;20496;-78
2022/04/11 13:40:37;;;;;;;4.03;3.40;;;;;;;;;;5031889;28;20410;-79
2022/04/11 13:43:03;;;;;;;3.53;3.23;;;;;;;;;;5033134;28;20745;-81
2022/04/11 13:45:29;;;;;;;4.00;3.60;;;;;;;;;;5033060;28;20415;-79
2022/04/11 13:47:55;;;;;;;3.70;3.40;;;;;;;;;;5033133;28;20423;-80
2022/04/11 13:50:21;;;;;;;3.47;3.20;;;;;;;;;;5032201;28;20415;-79
2022/04/11 13:52:47;;;;;;;4.50;3.33;;;;;;;;;;5032886;28;20553;-81
2022/04/11 13:55:13;;;;;;;4.60;4.20;;;;;;;;;;5033060;28;20402;-76
2022/04/11 13:57:39;;;;;;;3.80;3.50;;;;;;;;;;5033105;28;20414;-82
2022/04/11 14:00:06;;;;;;;4.50;3.80;;;;;;;;;;5032897;28;20400;-80
2022/04/11 14:02:32;;;;;;;4.20;3.80;;;;;;;;;;5033035;28;20513;-80
2022/04/11 14:04:58;;;;;;;4.73;4.10;;;;;;;;;;5032900;28;20485;-76
2022/04/11 14:07:24;;;;;;;7.03;4.07;;;;;;;;;;5032977;28;20446;-82
2022/04/11 14:09:50;;;;;;;4.03;3.60;;;;;;;;;;5031703;28;20414;-78
2022/04/11 14:12:16;;;;;;;4.50;3.80;;;;;;;;;;5032688;28;20466;-70
2022/04/11 14:14:42;;;;;;;4.53;3.70;;;;;;;;;;5032980;28;20415;-81
2022/04/11 14:17:08;;;;;;;4.00;3.70;;;;;;;;;;5032932;28;20403;-80
2022/04/11 14:19:34;;;;;;;3.70;3.30;;;;;;;;;;5032753;28;20426;-78
2022/04/11 14:22:00;;;;;;;3.73;3.23;;;;;;;;;;5032685;28;20479;-68
2022/04/11 14:24:26;;;;;;;5.00;3.17;;;;;;;;;;5032735;28;20430;-75
2022/04/11 14:26:52;;;;;;;4.40;3.70;;;;;;;;;;5032724;28;20414;-80
2022/04/11 14:29:18;;;;;;;5.10;3.50;;;;;;;;;;5032621;28;20917;-78
2022/04/11 14:31:44;;;;;;;4.53;3.80;;;;;;;;;;5032491;28;20490;-80
2022/04/11 14:34:10;;;;;;;4.30;3.90;;;;;;;;;;5032744;28;20913;-79
2022/04/11 14:36:36;;;;;;;3.73;3.43;;;;;;;;;;5032715;28;20406;-80
2022/04/11 14:39:02;;;;;;;4.27;3.80;;;;;;;;;;5031383;28;20982;-79
2022/04/11 14:41:28;;;;;;;3.90;3.60;;;;;;;;;;5032686;28;20406;-80
2022/04/11 14:43:55;;;;;;;3.80;3.50;;;;;;;;;;5032532;28;20484;-79